Eugene, OR (97401)

1:15 AM PST on December 09, 2016 (GMT -0800)
Cal Young | | Change Station

Elev 423 ft 44.08 °N, 123.08 °W | Updated 8 seconds ago

Overcast
Overcast
41.0 °F
Feels Like 41 °F
N
0.0
Wind Variable Wind from SE
Gusts 0.0 mph

Today
High -- | Low -- °F
--% Chance of Precip.
Yesterday
High -- | Low -- °F
Precip. -- in
Pressure 30.03 in
Visibility 10.0 miles
Clouds Mostly Cloudy 400 ft
Overcast 3500 ft
Windchill 41 °F
Dew Point 40 °F
Humidity 98%
Rainfall 0.00 in
Snow Depth Not available.
7:36 AM 4:33 PM
Waxing Gibbous, 72% visible
METAR KEUG 090854Z AUTO 30004KT 10SM BKN004 OVC035 02/01 A3002 RMK AO2 SLP168 60001 T00220011 50015
Pressure 30.03 in
Visibility 10.0 miles
Clouds Mostly Cloudy 400 ft
Overcast 3500 ft
Windchill 41 °F
Dew Point 40 °F
Humidity 98%
Rainfall 0.00 in
Snow Depth Not available.
7:36 AM 4:33 PM
Waxing Gibbous, 72% visible
METAR KEUG 090854Z AUTO 30004KT 10SM BKN004 OVC035 02/01 A3002 RMK AO2 SLP168 60001 T00220011 50015

10-Day Weather Forecast

Almanac

Astronomy

Dec. 09, 2016 Rise Set
Actual Time
Civil Twilight
Nautical Twilight
Astronomical Twilight
Moon
Length of Visible Light
Length of Day
Tomorrow will be .
, % of the Moon is Illuminated

Today's Extremes

State Highs State Lows

Community

WunderPhotos

Upload Photos

1,956,371 photos uploaded!

WunderBlog® & News

Nearby

Air Quality

  Air Quality AQ Index Pollutant
Not available.

Snow Depth

Station Depth Elevation

Earthquake Activity

City Distance Mag. Time & Date
Minimum magnitude displayed is 2.5.

Coastal Water Temperatures

Place Temperature

Stations

Nearby Weather Stations

Station Location Temp. Windchill Dew Point Humidity Wind Precip. Elev Updated Type
                   

Watches & Warnings

There are currently no watches in effect.